Главная страница
METAR-TAF:

METAR-TAF

Аэропорты :

Mora–Siljan

Мура, Швеция

широта: 60-57-31N, долгота: 14-30-40E, высота над уровнем моря: 193 м

Текущие метеонаблюдения

Эта сводка был подготовлена 15 минут назад, в 06:50 UTC
Штиль
Температура -6°C
Влажность 93%
Давление 1023 hPa
Видимость 10 км и более
Снежные зерна

METAR: ESKM 190650Z AUTO 00000KT 9999 SG OVC006/// M06/M07 Q1023

Время: 08:05 (07:05 UTC)


TAF: отсутствует

Метеонаблюдения и прогнозы для более 4000 аэропортов (сводки METAR и TAF).

Имеющиеся станции представлены на карте желтыми и красными точками.

Чтобы увидеть название станции, наведите на нее мышь.

Затем щелкните, чтобы увидеть метеонаблюдения и метеопрогнозы.

Управление картой: чтобы увеличить масштаб, щелкните зеленые кнопки с черным крестиком; чтобы уменьшить масштаб, щелкните зеленую кнопку с тире; для просмотра соседних карт щелкайте зеленые стрелки.


METAR-TAF: